createdAt,value
2018-11-03T00:01:18.299Z,98.70
2018-11-03T00:03:54.443Z,98.80
2018-11-03T00:06:33.982Z,98.80
2018-11-03T00:09:10.576Z,98.80
2018-11-03T00:11:46.633Z,99.20
2018-11-03T00:14:22.669Z,98.90
2018-11-03T00:16:57.020Z,98.90
2018-11-03T00:19:36.012Z,99.00
2018-11-03T00:22:09.504Z,99.00
2018-11-03T00:24:44.680Z,98.90
2018-11-03T00:27:20.654Z,98.90
2018-11-03T00:29:56.877Z,98.90
2018-11-03T00:32:33.010Z,98.90
2018-11-03T00:35:07.136Z,99.30
2018-11-03T00:37:46.084Z,99.00
2018-11-03T00:40:27.041Z,99.00
2018-11-03T00:43:06.172Z,99.10
2018-11-03T00:45:42.347Z,99.10
2018-11-03T00:48:16.622Z,99.00
2018-11-03T00:50:52.847Z,99.10
2018-11-03T00:53:27.573Z,99.10
2018-11-03T00:56:02.006Z,99.10
2018-11-03T00:58:36.367Z,99.20
2018-11-03T01:01:10.546Z,99.30
2018-11-03T01:03:46.665Z,99.30
2018-11-03T01:06:27.491Z,99.30
2018-11-03T01:09:07.611Z,99.40
2018-11-03T01:11:39.652Z,99.40
2018-11-03T01:14:13.996Z,99.50
2018-11-03T01:16:50.351Z,99.50
2018-11-03T01:19:24.639Z,99.60
2018-11-03T01:22:00.861Z,99.70
2018-11-03T01:24:36.649Z,99.80
2018-11-03T01:27:11.546Z,99.80
2018-11-03T01:29:45.763Z,99.80
2018-11-03T01:32:22.084Z,99.80
2018-11-03T01:34:57.317Z,99.90
2018-11-03T01:37:33.600Z,99.90
2018-11-03T01:40:09.555Z,99.90
2018-11-03T01:42:44.132Z,99.90
2018-11-03T01:45:18.223Z,99.90
2018-11-03T01:47:52.716Z,99.90
2018-11-03T01:50:27.120Z,99.90
2018-11-03T01:53:01.346Z,99.90
2018-11-03T01:55:35.944Z,99.90
2018-11-03T01:58:07.877Z,99.90
2018-11-03T02:00:42.400Z,99.90
2018-11-03T02:03:18.781Z,99.90
2018-11-03T02:05:52.907Z,99.90
2018-11-03T02:08:31.655Z,99.90
2018-11-03T02:11:07.663Z,99.90
2018-11-03T02:13:42.789Z,99.90
2018-11-03T02:16:17.079Z,99.90
2018-11-03T02:18:51.321Z,99.90
2018-11-03T02:21:26.295Z,99.90
2018-11-03T02:24:01.761Z,99.90
2018-11-03T02:26:41.587Z,99.90
2018-11-03T02:29:16.117Z,99.90
2018-11-03T02:31:54.580Z,99.90
2018-11-03T02:34:33.008Z,99.90
2018-11-03T02:37:08.008Z,99.90
2018-11-03T02:39:42.302Z,99.90
2018-11-03T02:42:17.416Z,99.90
2018-11-03T02:44:51.789Z,99.90
2018-11-03T02:47:27.976Z,99.90
2018-11-03T02:50:07.133Z,99.90
2018-11-03T02:52:41.482Z,99.90
2018-11-03T02:55:16.408Z,99.90
2018-11-03T02:57:50.531Z,99.90
2018-11-03T03:00:25.764Z,99.90
2018-11-03T03:03:01.674Z,99.90
2018-11-03T03:05:35.867Z,99.90
2018-11-03T03:08:10.294Z,99.90
2018-11-03T03:10:48.704Z,99.90
2018-11-03T03:13:24.216Z,99.90
2018-11-03T03:16:00.293Z,99.90
2018-11-03T03:18:35.496Z,99.90
2018-11-03T03:21:09.958Z,99.90
2018-11-03T03:26:21.010Z,99.90
2018-11-03T03:28:56.216Z,99.90
2018-11-03T03:31:30.233Z,99.90
2018-11-03T03:34:09.080Z,99.90
2018-11-03T03:36:44.198Z,99.90
2018-11-03T03:39:20.505Z,99.90
2018-11-03T03:41:54.741Z,99.90
2018-11-03T03:44:29.098Z,99.90
2018-11-03T03:47:05.581Z,99.90
2018-11-03T03:49:47.059Z,99.90
2018-11-03T03:52:25.071Z,99.90
2018-11-03T03:55:01.943Z,99.90
2018-11-03T03:57:36.396Z,99.90
2018-11-03T04:00:13.033Z,99.90
2018-11-03T04:02:48.045Z,99.90
2018-11-03T04:05:22.496Z,99.90
2018-11-03T04:07:57.857Z,99.90
2018-11-03T04:10:34.093Z,99.90
2018-11-03T04:13:08.236Z,99.90
2018-11-03T04:15:42.720Z,99.90
2018-11-03T04:18:16.818Z,99.90
2018-11-03T04:20:53.207Z,99.90
2018-11-03T04:23:27.942Z,99.90
2018-11-03T04:26:02.214Z,99.90
2018-11-03T04:28:36.638Z,99.90
2018-11-03T04:31:11.944Z,99.90
2018-11-03T04:33:47.292Z,99.90
2018-11-03T04:36:22.202Z,99.90
2018-11-03T04:38:56.610Z,99.90
2018-11-03T04:41:35.332Z,99.90
2018-11-03T04:44:11.238Z,99.90
2018-11-03T04:46:43.489Z,99.90
2018-11-03T04:49:18.111Z,99.90
2018-11-03T04:51:58.725Z,99.90
2018-11-03T04:54:36.815Z,99.90
2018-11-03T04:57:11.561Z,99.90
2018-11-03T04:59:46.311Z,99.90
2018-11-03T05:02:20.535Z,99.90
2018-11-03T05:04:52.831Z,99.90
2018-11-03T05:07:29.457Z,99.90
2018-11-03T05:10:03.818Z,99.90
2018-11-03T05:12:38.403Z,99.90
2018-11-03T05:15:13.213Z,99.90
2018-11-03T05:17:47.278Z,99.90
2018-11-03T05:20:21.739Z,99.90
2018-11-03T05:22:58.132Z,99.90
2018-11-03T05:25:32.217Z,99.90
2018-11-03T05:28:06.666Z,99.90
2018-11-03T05:30:44.695Z,99.90
2018-11-03T05:33:18.910Z,99.90
2018-11-03T05:35:53.165Z,99.90
2018-11-03T05:38:28.427Z,99.90
2018-11-03T05:41:03.074Z,99.90
2018-11-03T05:43:41.524Z,99.90
2018-11-03T05:46:15.815Z,99.90
2018-11-03T05:48:50.167Z,99.90
2018-11-03T05:51:24.309Z,99.90
2018-11-03T05:53:58.674Z,99.90
2018-11-03T05:56:34.086Z,99.90
2018-11-03T05:59:13.149Z,99.90
2018-11-03T06:01:44.970Z,99.90
2018-11-03T06:04:20.621Z,99.90
2018-11-03T06:06:58.846Z,99.90
2018-11-03T06:09:33.352Z,99.90
2018-11-03T06:12:05.902Z,99.90
2018-11-03T06:14:39.969Z,99.90
2018-11-03T06:17:13.984Z,99.90
2018-11-03T06:19:48.246Z,99.90
2018-11-03T06:22:28.483Z,99.90
2018-11-03T06:25:09.968Z,99.90
2018-11-03T06:27:44.147Z,99.90
2018-11-03T06:30:19.493Z,99.90
2018-11-03T06:32:57.628Z,99.90
2018-11-03T06:35:33.199Z,99.90
2018-11-03T06:38:09.417Z,99.90
2018-11-03T06:40:45.384Z,99.90
2018-11-03T06:43:20.983Z,99.90
2018-11-03T06:45:55.529Z,99.90
2018-11-03T06:48:31.515Z,99.90
2018-11-03T06:51:05.823Z,99.90
2018-11-03T06:53:41.351Z,99.90
2018-11-03T06:56:15.600Z,99.90
2018-11-03T06:58:49.973Z,99.90
2018-11-03T07:01:24.983Z,99.90
2018-11-03T07:03:59.251Z,99.90
2018-11-03T07:06:34.781Z,99.90
2018-11-03T07:09:10.135Z,99.90
2018-11-03T07:11:46.092Z,99.90
2018-11-03T07:14:20.524Z,99.90
2018-11-03T07:16:59.142Z,99.90
2018-11-03T07:19:33.307Z,99.70
2018-11-03T07:22:09.384Z,99.70
2018-11-03T07:24:44.950Z,99.60
2018-11-03T07:27:16.823Z,99.50
2018-11-03T07:29:52.589Z,99.10
2018-11-03T07:32:26.852Z,99.10
2018-11-03T07:35:02.188Z,98.20
2018-11-03T07:37:37.343Z,98.30
2018-11-03T07:40:12.766Z,97.40
2018-11-03T07:42:48.748Z,96.80
2018-11-03T07:45:25.117Z,95.50
2018-11-03T07:48:00.691Z,94.80
2018-11-03T07:50:36.925Z,92.90
2018-11-03T07:53:13.510Z,91.80
2018-11-03T07:55:48.122Z,86.10
2018-11-03T07:58:23.292Z,78.30
2018-11-03T08:00:55.357Z,79.70
2018-11-03T08:03:31.450Z,84.20
2018-11-03T08:06:03.994Z,86.90
2018-11-03T08:08:38.959Z,90.20
2018-11-03T08:11:15.074Z,90.40
2018-11-03T08:13:51.523Z,90.70
2018-11-03T08:16:25.777Z,91.40
2018-11-03T08:19:00.627Z,90.10
2018-11-03T08:21:35.882Z,90.60
2018-11-03T08:24:11.156Z,90.40
2018-11-03T08:26:42.885Z,90.00
2018-11-03T08:29:18.892Z,90.20
2018-11-03T08:31:51.156Z,89.80
2018-11-03T08:34:26.271Z,88.80
2018-11-03T08:37:02.582Z,88.50
2018-11-03T08:39:40.941Z,87.20
2018-11-03T08:42:16.249Z,86.80
2018-11-03T08:44:51.068Z,85.90
2018-11-03T08:47:27.838Z,80.50
2018-11-03T08:50:02.399Z,78.40
2018-11-03T08:52:36.954Z,74.40
2018-11-03T08:55:12.949Z,73.30
2018-11-03T08:57:48.066Z,73.20
2018-11-03T09:00:24.630Z,71.10
2018-11-03T09:02:59.471Z,71.40
2018-11-03T09:05:34.554Z,72.50
2018-11-03T09:08:08.794Z,72.00
2018-11-03T09:10:43.264Z,71.80
2018-11-03T09:13:17.474Z,71.80
2018-11-03T09:15:52.000Z,70.20
2018-11-03T09:18:27.814Z,70.50
2018-11-03T09:21:02.680Z,69.30
2018-11-03T09:23:34.557Z,71.80
2018-11-03T09:26:07.732Z,73.40
2018-11-03T09:28:44.375Z,76.60
2018-11-03T09:31:22.688Z,80.10
2018-11-03T09:33:58.606Z,82.80
2018-11-03T09:36:32.839Z,84.10
2018-11-03T09:39:17.540Z,85.80
2018-11-03T09:41:53.366Z,86.90
2018-11-03T09:44:28.921Z,87.80
2018-11-03T09:47:03.473Z,89.20
2018-11-03T09:49:39.872Z,89.60
2018-11-03T09:52:16.767Z,89.50
2018-11-03T09:54:55.623Z,90.40
2018-11-03T09:57:30.243Z,90.60
2018-11-03T10:00:14.656Z,90.50
2018-11-03T10:03:01.073Z,90.40
2018-11-03T10:05:38.259Z,90.10
2018-11-03T10:08:12.200Z,90.20
2018-11-03T10:10:51.108Z,89.60
2018-11-03T10:16:09.187Z,89.60
2018-11-03T10:18:45.274Z,90.30
2018-11-03T10:21:20.140Z,90.30
2018-11-03T10:23:58.616Z,89.70
2018-11-03T10:26:42.556Z,89.50
2018-11-03T10:29:14.962Z,89.40
2018-11-03T10:31:49.199Z,88.50
2018-11-03T10:34:28.288Z,87.80
2018-11-03T10:37:03.167Z,89.40
2018-11-03T10:39:43.764Z,89.90
2018-11-03T10:42:18.258Z,89.20
2018-11-03T10:45:11.444Z,88.40
2018-11-03T10:50:21.436Z,88.90
2018-11-03T10:53:10.830Z,89.00
2018-11-03T10:55:49.268Z,89.50
2018-11-03T10:58:24.681Z,89.40
2018-11-03T11:01:04.249Z,89.50
2018-11-03T11:03:48.470Z,89.80
2018-11-03T11:06:28.578Z,90.00
2018-11-03T11:09:17.528Z,89.70
2018-11-03T11:12:01.028Z,89.70
2018-11-03T11:14:36.788Z,89.10
2018-11-03T11:17:11.912Z,89.10
2018-11-03T11:19:47.798Z,88.60
2018-11-03T11:22:22.095Z,88.40
2018-11-03T11:24:58.588Z,88.60
2018-11-03T11:27:34.604Z,88.50
2018-11-03T11:30:13.013Z,88.80
2018-11-03T11:32:48.489Z,88.90
2018-11-03T11:35:23.605Z,88.90
2018-11-03T11:37:59.867Z,89.10
2018-11-03T11:40:36.427Z,89.10
2018-11-03T11:43:13.654Z,89.60
2018-11-03T11:45:49.895Z,89.50
2018-11-03T11:48:30.963Z,88.50
2018-11-03T11:51:05.741Z,88.30
2018-11-03T11:53:39.904Z,86.90
2018-11-03T11:56:16.104Z,87.60
2018-11-03T11:58:52.405Z,88.30
2018-11-03T12:01:24.277Z,87.80
2018-11-03T12:06:41.040Z,88.00
2018-11-03T12:09:17.868Z,87.30
2018-11-03T12:11:52.456Z,87.90
2018-11-03T12:14:26.676Z,86.90
2018-11-03T12:17:02.074Z,87.50
2018-11-03T12:19:41.228Z,87.80
2018-11-03T12:22:15.435Z,87.20
2018-11-03T12:24:56.258Z,87.10
2018-11-03T12:27:30.992Z,88.00
2018-11-03T12:30:05.881Z,88.00
2018-11-03T12:32:40.679Z,88.30
2018-11-03T12:35:15.115Z,87.90
2018-11-03T12:37:50.339Z,87.50
2018-11-03T12:40:25.576Z,87.40
2018-11-03T12:43:01.429Z,87.20
2018-11-03T12:45:39.724Z,87.50
2018-11-03T12:48:14.228Z,87.60
2018-11-03T12:50:49.697Z,87.00
2018-11-03T12:53:32.569Z,86.80
2018-11-03T12:56:09.221Z,86.60
2018-11-03T12:58:50.856Z,86.80
2018-11-03T13:01:32.343Z,86.00
2018-11-03T13:04:17.990Z,85.90
2018-11-03T13:06:52.605Z,85.30
2018-11-03T13:09:26.555Z,85.20
2018-11-03T13:12:00.802Z,84.90
2018-11-03T13:14:39.164Z,84.00
2018-11-03T13:17:14.279Z,83.80
2018-11-03T13:19:46.297Z,82.80
2018-11-03T13:22:22.165Z,81.80
2018-11-03T13:25:00.390Z,81.10
2018-11-03T13:27:34.659Z,82.20
2018-11-03T13:30:12.325Z,82.00
2018-11-03T13:32:49.182Z,82.60
2018-11-03T13:35:26.770Z,82.80
2018-11-03T13:38:03.070Z,83.40
2018-11-03T13:40:38.760Z,83.30
2018-11-03T13:43:18.978Z,83.40
2018-11-03T13:45:53.749Z,81.90
2018-11-03T13:48:29.954Z,82.50
2018-11-03T13:51:04.951Z,82.30
2018-11-03T13:53:43.624Z,81.90
2018-11-03T13:56:17.847Z,81.10
2018-11-03T13:58:52.270Z,81.40
2018-11-03T14:01:26.581Z,81.10
2018-11-03T14:04:01.707Z,80.90
2018-11-03T14:06:35.936Z,81.90
2018-11-03T14:09:10.909Z,81.90
2018-11-03T14:11:45.249Z,82.30
2018-11-03T14:14:21.609Z,82.70
2018-11-03T14:16:55.896Z,83.10
2018-11-03T14:19:34.170Z,83.80
2018-11-03T14:22:10.314Z,84.10
2018-11-03T14:27:22.319Z,84.10
2018-11-03T14:29:56.297Z,84.50
2018-11-03T14:32:35.005Z,85.30
2018-11-03T14:35:14.651Z,84.70
2018-11-03T14:37:50.906Z,84.40
2018-11-03T14:43:02.028Z,84.60
2018-11-03T14:45:36.584Z,84.20
2018-11-03T14:48:12.833Z,84.20
2018-11-03T14:50:51.601Z,84.30
2018-11-03T14:53:26.046Z,84.80
2018-11-03T14:56:00.839Z,85.50
2018-11-03T14:58:32.788Z,85.90
2018-11-03T15:01:10.327Z,86.20
2018-11-03T15:03:48.985Z,87.20
2018-11-03T15:06:27.540Z,88.30
2018-11-03T15:09:05.259Z,87.60
2018-11-03T15:11:40.674Z,87.40
2018-11-03T15:14:15.191Z,87.50
2018-11-03T15:16:49.293Z,87.40
2018-11-03T15:19:23.477Z,87.80
2018-11-03T15:22:02.749Z,87.60
2018-11-03T15:24:38.188Z,88.00
2018-11-03T15:27:12.733Z,88.40
2018-11-03T15:29:47.866Z,88.70
2018-11-03T15:32:22.368Z,88.50
2018-11-03T15:35:04.321Z,88.60
2018-11-03T15:37:39.317Z,89.00
2018-11-03T15:40:17.972Z,88.70
2018-11-03T15:42:53.912Z,89.00
2018-11-03T15:45:30.658Z,89.70
2018-11-03T15:48:11.247Z,89.90
2018-11-03T15:50:48.608Z,90.00
2018-11-03T15:53:29.566Z,90.10
2018-11-03T15:56:06.178Z,90.10
2018-11-03T15:58:40.823Z,90.20
2018-11-03T16:01:21.263Z,90.40
2018-11-03T16:03:59.319Z,90.50
2018-11-03T16:06:38.389Z,90.70
2018-11-03T16:09:15.634Z,90.90
2018-11-03T16:11:50.362Z,91.00
2018-11-03T16:14:32.115Z,91.10
2018-11-03T16:17:07.709Z,91.10
2018-11-03T16:19:43.175Z,91.30
2018-11-03T16:22:18.242Z,91.30
2018-11-03T16:24:54.100Z,91.20
2018-11-03T16:27:28.681Z,91.30
2018-11-03T16:30:03.582Z,91.40
2018-11-03T16:32:39.009Z,91.60
2018-11-03T16:35:17.060Z,91.90
2018-11-03T16:37:51.660Z,92.10
2018-11-03T16:40:25.788Z,92.20
2018-11-03T16:43:00.278Z,92.10
2018-11-03T16:45:41.100Z,92.20
2018-11-03T16:48:19.876Z,92.10
2018-11-03T16:50:54.806Z,92.10
2018-11-03T16:53:29.054Z,92.40
2018-11-03T16:56:05.668Z,92.30
2018-11-03T16:58:40.135Z,92.40
2018-11-03T17:01:15.297Z,92.40
2018-11-03T17:03:53.592Z,92.40
2018-11-03T17:06:29.765Z,92.50
2018-11-03T17:09:06.658Z,92.60
2018-11-03T17:11:47.678Z,92.80
2018-11-03T17:14:41.393Z,93.00
2018-11-03T17:17:18.111Z,93.20
2018-11-03T17:19:52.493Z,93.50
2018-11-03T17:22:29.784Z,93.50
2018-11-03T17:25:09.408Z,93.60
2018-11-03T17:27:44.562Z,93.50
2018-11-03T17:30:19.577Z,93.50
2018-11-03T17:33:00.097Z,93.50
2018-11-03T17:35:34.706Z,93.60
2018-11-03T17:38:09.907Z,93.50
2018-11-03T17:40:44.249Z,93.70
2018-11-03T17:43:20.133Z,93.80
2018-11-03T17:45:52.681Z,94.20
2018-11-03T17:48:27.413Z,94.30
2018-11-03T17:51:06.771Z,94.90
2018-11-03T17:53:40.933Z,95.10
2018-11-03T17:56:15.433Z,95.40
2018-11-03T17:58:47.340Z,95.90
2018-11-03T18:01:31.820Z,96.00
2018-11-03T18:04:25.989Z,96.20
2018-11-03T18:09:43.891Z,96.40
2018-11-03T18:12:19.503Z,96.90
2018-11-03T18:14:54.296Z,97.10
2018-11-03T18:17:39.109Z,97.20
2018-11-03T18:20:15.977Z,97.30
2018-11-03T18:22:50.930Z,97.40
2018-11-03T18:25:29.404Z,97.40
2018-11-03T18:28:06.124Z,97.40
2018-11-03T18:30:40.311Z,97.60
2018-11-03T18:33:16.329Z,97.70
2018-11-03T18:35:50.747Z,97.80
2018-11-03T18:38:24.879Z,97.90
2018-11-03T18:40:59.271Z,98.00
2018-11-03T18:43:33.636Z,97.90
2018-11-03T18:46:08.521Z,98.40
2018-11-03T18:48:42.855Z,98.00
2018-11-03T18:51:18.983Z,98.00
2018-11-03T18:53:53.807Z,98.10
2018-11-03T18:56:27.823Z,98.00
2018-11-03T18:59:02.197Z,98.10
2018-11-03T19:01:36.798Z,98.40
2018-11-03T19:04:11.051Z,98.50
2018-11-03T19:06:45.511Z,98.30
2018-11-03T19:09:19.590Z,98.30
2018-11-03T19:11:58.634Z,98.50
2018-11-03T19:14:37.359Z,99.20
2018-11-03T19:17:14.191Z,99.00
2018-11-03T19:19:48.475Z,98.90
2018-11-03T19:22:20.757Z,98.30
2018-11-03T19:24:55.749Z,97.60
2018-11-03T19:27:33.991Z,97.10
2018-11-03T19:30:11.353Z,96.40
2018-11-03T19:32:46.260Z,96.00
2018-11-03T19:35:20.717Z,95.80
2018-11-03T19:37:59.139Z,95.70
2018-11-03T19:40:35.290Z,95.50
2018-11-03T19:43:10.795Z,95.60
2018-11-03T19:45:45.900Z,96.00
2018-11-03T19:48:20.421Z,96.20
2018-11-03T19:50:55.132Z,96.60
2018-11-03T19:53:29.356Z,96.70
2018-11-03T19:56:04.503Z,97.00
2018-11-03T19:58:39.020Z,97.30
2018-11-03T20:01:13.514Z,97.40
2018-11-03T20:03:47.929Z,97.40
2018-11-03T20:06:24.246Z,97.60
2018-11-03T20:09:03.302Z,97.70
2018-11-03T20:11:38.531Z,97.80
2018-11-03T20:14:12.991Z,97.80
2018-11-03T20:16:50.500Z,98.00
2018-11-03T20:19:24.938Z,98.10
2018-11-03T20:22:03.304Z,98.10
2018-11-03T20:24:51.189Z,98.40
2018-11-03T20:27:31.825Z,98.10
2018-11-03T20:30:07.596Z,98.20
2018-11-03T20:44:51.538Z,98.80
2018-11-03T20:53:39.761Z,98.50
2018-11-03T21:12:23.580Z,98.50
2018-11-03T21:18:14.226Z,98.80
2018-11-03T21:32:56.929Z,96.20
2018-11-03T21:35:32.687Z,96.20
2018-11-03T21:38:13.302Z,96.10
2018-11-03T21:40:49.315Z,96.00
2018-11-03T21:43:25.467Z,96.30
2018-11-03T21:46:03.863Z,96.50
2018-11-03T21:48:41.978Z,96.30
2018-11-03T21:51:20.020Z,96.60
2018-11-03T21:53:55.104Z,96.50
2018-11-03T21:56:33.366Z,96.40
2018-11-03T21:59:16.189Z,96.30
2018-11-03T22:01:55.787Z,96.20
2018-11-03T22:04:30.489Z,96.10
2018-11-03T22:07:04.556Z,96.40
2018-11-03T22:09:43.825Z,96.50
2018-11-03T22:12:18.927Z,96.40
2018-11-03T22:14:55.857Z,96.40
2018-11-03T22:17:31.371Z,96.70
2018-11-03T22:20:06.114Z,96.60
2018-11-03T22:22:40.894Z,96.60
2018-11-03T22:25:21.516Z,96.60
2018-11-03T22:27:56.102Z,96.60
2018-11-03T22:30:27.687Z,96.90
2018-11-03T22:33:03.293Z,97.10
2018-11-03T22:35:39.814Z,97.10
2018-11-03T22:38:21.959Z,97.40
2018-11-03T22:41:04.812Z,97.70
2018-11-03T22:43:43.632Z,97.70
2018-11-03T22:46:19.818Z,97.70
2018-11-03T22:48:54.085Z,97.70
2018-11-03T22:51:28.344Z,97.80
2018-11-03T22:54:03.658Z,98.00
2018-11-03T22:56:40.014Z,98.20
2018-11-03T22:59:14.961Z,98.30
2018-11-03T23:01:49.372Z,98.40
2018-11-03T23:04:28.158Z,98.50
2018-11-03T23:07:02.973Z,98.50
2018-11-03T23:09:36.956Z,98.70
2018-11-03T23:12:11.096Z,98.70
2018-11-03T23:14:45.615Z,98.70
2018-11-03T23:17:17.361Z,98.80
2018-11-03T23:19:51.698Z,98.80
2018-11-03T23:22:25.800Z,98.80
2018-11-03T23:25:03.981Z,98.90
2018-11-03T23:27:40.273Z,99.00
2018-11-03T23:30:15.637Z,99.00
2018-11-03T23:32:47.309Z,99.10
2018-11-03T23:35:21.901Z,99.10
2018-11-03T23:37:56.234Z,99.10
2018-11-03T23:40:30.437Z,99.10
2018-11-03T23:43:04.949Z,99.10
2018-11-03T23:45:41.029Z,99.20
2018-11-03T23:48:17.355Z,99.20
2018-11-03T23:50:52.618Z,99.30
2018-11-03T23:53:34.228Z,99.30
2018-11-03T23:56:10.292Z,99.40
2018-11-03T23:58:52.738Z,99.40
